sensor_id;sensor_type;location;lat;lon;timestamp;P1;durP1;ratioP1;P2;durP2;ratioP2
42420;SDS011;28063;48.140;11.588;2023-05-07T00:01:27;0.50;;;0.50;;
42420;SDS011;28063;48.140;11.588;2023-05-07T00:03:53;0.43;;;0.43;;
42420;SDS011;28063;48.140;11.588;2023-05-07T00:06:19;0.80;;;0.80;;
42420;SDS011;28063;48.140;11.588;2023-05-07T00:08:44;0.73;;;0.73;;
42420;SDS011;28063;48.140;11.588;2023-05-07T00:11:10;0.80;;;0.80;;
42420;SDS011;28063;48.140;11.588;2023-05-07T00:13:36;0.70;;;0.70;;
42420;SDS011;28063;48.140;11.588;2023-05-07T00:16:02;0.80;;;0.80;;
42420;SDS011;28063;48.140;11.588;2023-05-07T00:18:28;1.05;;;0.80;;
42420;SDS011;28063;48.140;11.588;2023-05-07T00:20:54;1.13;;;1.00;;
42420;SDS011;28063;48.140;11.588;2023-05-07T00:23:19;1.27;;;1.17;;
42420;SDS011;28063;48.140;11.588;2023-05-07T00:25:45;1.55;;;1.25;;
42420;SDS011;28063;48.140;11.588;2023-05-07T00:28:11;1.00;;;1.00;;
42420;SDS011;28063;48.140;11.588;2023-05-07T00:30:36;1.17;;;1.08;;
42420;SDS011;28063;48.140;11.588;2023-05-07T00:33:02;0.80;;;0.80;;
42420;SDS011;28063;48.140;11.588;2023-05-07T00:35:28;0.70;;;0.70;;
42420;SDS011;28063;48.140;11.588;2023-05-07T00:37:54;0.93;;;0.90;;
42420;SDS011;28063;48.140;11.588;2023-05-07T00:40:20;0.70;;;0.70;;
42420;SDS011;28063;48.140;11.588;2023-05-07T00:42:46;1.10;;;0.93;;
42420;SDS011;28063;48.140;11.588;2023-05-07T00:45:14;0.93;;;0.93;;
42420;SDS011;28063;48.140;11.588;2023-05-07T00:47:40;0.93;;;0.75;;
42420;SDS011;28063;48.140;11.588;2023-05-07T00:50:07;0.90;;;0.90;;
42420;SDS011;28063;48.140;11.588;2023-05-07T00:52:36;0.70;;;0.70;;
42420;SDS011;28063;48.140;11.588;2023-05-07T00:55:04;1.00;;;1.00;;
42420;SDS011;28063;48.140;11.588;2023-05-07T00:57:37;0.73;;;0.73;;
42420;SDS011;28063;48.140;11.588;2023-05-07T01:00:06;0.80;;;0.80;;
42420;SDS011;28063;48.140;11.588;2023-05-07T01:02:34;0.75;;;0.75;;
42420;SDS011;28063;48.140;11.588;2023-05-07T01:05:04;0.80;;;0.80;;
42420;SDS011;28063;48.140;11.588;2023-05-07T01:07:32;0.70;;;0.70;;
42420;SDS011;28063;48.140;11.588;2023-05-07T01:09:59;0.70;;;0.70;;
42420;SDS011;28063;48.140;11.588;2023-05-07T01:12:25;0.57;;;0.57;;
42420;SDS011;28063;48.140;11.588;2023-05-07T01:14:52;0.57;;;0.57;;
42420;SDS011;28063;48.140;11.588;2023-05-07T01:17:18;0.75;;;0.75;;
42420;SDS011;28063;48.140;11.588;2023-05-07T01:19:44;0.63;;;0.63;;
42420;SDS011;28063;48.140;11.588;2023-05-07T01:22:10;0.55;;;0.55;;
42420;SDS011;28063;48.140;11.588;2023-05-07T01:24:37;0.60;;;0.60;;
42420;SDS011;28063;48.140;11.588;2023-05-07T01:27:03;0.70;;;0.70;;
42420;SDS011;28063;48.140;11.588;2023-05-07T01:29:29;0.50;;;0.50;;
42420;SDS011;28063;48.140;11.588;2023-05-07T01:31:58;0.88;;;0.88;;
42420;SDS011;28063;48.140;11.588;2023-05-07T01:34:26;0.70;;;0.70;;
42420;SDS011;28063;48.140;11.588;2023-05-07T01:36:54;0.80;;;0.80;;
42420;SDS011;28063;48.140;11.588;2023-05-07T01:39:24;0.93;;;0.93;;
42420;SDS011;28063;48.140;11.588;2023-05-07T01:41:50;1.05;;;1.02;;
42420;SDS011;28063;48.140;11.588;2023-05-07T01:44:16;0.82;;;0.82;;
42420;SDS011;28063;48.140;11.588;2023-05-07T01:46:43;0.75;;;0.75;;
42420;SDS011;28063;48.140;11.588;2023-05-07T01:49:09;0.47;;;0.47;;
42420;SDS011;28063;48.140;11.588;2023-05-07T01:51:35;0.68;;;0.68;;
42420;SDS011;28063;48.140;11.588;2023-05-07T01:54:01;0.70;;;0.70;;
42420;SDS011;28063;48.140;11.588;2023-05-07T01:56:27;0.70;;;0.70;;
42420;SDS011;28063;48.140;11.588;2023-05-07T01:58:53;0.55;;;0.55;;
42420;SDS011;28063;48.140;11.588;2023-05-07T02:01:18;0.70;;;0.70;;
42420;SDS011;28063;48.140;11.588;2023-05-07T02:03:44;0.70;;;0.70;;
42420;SDS011;28063;48.140;11.588;2023-05-07T02:06:10;0.63;;;0.60;;
42420;SDS011;28063;48.140;11.588;2023-05-07T02:08:35;0.40;;;0.40;;
42420;SDS011;28063;48.140;11.588;2023-05-07T02:11:01;0.60;;;0.60;;
42420;SDS011;28063;48.140;11.588;2023-05-07T02:13:31;0.60;;;0.60;;
42420;SDS011;28063;48.140;11.588;2023-05-07T02:15:58;0.90;;;0.60;;
42420;SDS011;28063;48.140;11.588;2023-05-07T02:18:24;0.80;;;0.80;;
42420;SDS011;28063;48.140;11.588;2023-05-07T02:20:50;0.77;;;0.77;;
42420;SDS011;28063;48.140;11.588;2023-05-07T02:23:15;0.95;;;0.88;;
42420;SDS011;28063;48.140;11.588;2023-05-07T02:25:41;0.77;;;0.77;;
42420;SDS011;28063;48.140;11.588;2023-05-07T02:28:07;0.80;;;0.80;;
42420;SDS011;28063;48.140;11.588;2023-05-07T02:30:32;1.02;;;0.95;;
42420;SDS011;28063;48.140;11.588;2023-05-07T02:32:58;0.80;;;0.80;;
42420;SDS011;28063;48.140;11.588;2023-05-07T02:35:26;1.15;;;1.10;;
42420;SDS011;28063;48.140;11.588;2023-05-07T02:37:52;0.80;;;0.80;;
42420;SDS011;28063;48.140;11.588;2023-05-07T02:40:18;0.98;;;0.98;;
42420;SDS011;28063;48.140;11.588;2023-05-07T02:42:43;1.15;;;1.05;;
42420;SDS011;28063;48.140;11.588;2023-05-07T02:45:09;1.10;;;1.10;;
42420;SDS011;28063;48.140;11.588;2023-05-07T02:47:35;1.00;;;1.00;;
42420;SDS011;28063;48.140;11.588;2023-05-07T02:50:01;1.13;;;1.13;;
42420;SDS011;28063;48.140;11.588;2023-05-07T02:52:27;1.13;;;1.02;;
42420;SDS011;28063;48.140;11.588;2023-05-07T02:54:53;1.13;;;1.10;;
42420;SDS011;28063;48.140;11.588;2023-05-07T02:57:19;0.90;;;0.90;;
42420;SDS011;28063;48.140;11.588;2023-05-07T02:59:44;1.05;;;0.95;;
42420;SDS011;28063;48.140;11.588;2023-05-07T03:02:10;0.93;;;0.93;;
42420;SDS011;28063;48.140;11.588;2023-05-07T03:04:36;1.35;;;1.25;;
42420;SDS011;28063;48.140;11.588;2023-05-07T03:07:02;0.90;;;0.90;;
42420;SDS011;28063;48.140;11.588;2023-05-07T03:09:27;1.27;;;1.20;;
42420;SDS011;28063;48.140;11.588;2023-05-07T03:11:53;0.90;;;0.90;;
42420;SDS011;28063;48.140;11.588;2023-05-07T03:14:19;0.60;;;0.60;;
42420;SDS011;28063;48.140;11.588;2023-05-07T03:16:45;0.80;;;0.80;;
42420;SDS011;28063;48.140;11.588;2023-05-07T03:19:11;0.98;;;0.98;;
42420;SDS011;28063;48.140;11.588;2023-05-07T03:21:36;0.90;;;0.90;;
42420;SDS011;28063;48.140;11.588;2023-05-07T03:24:02;0.80;;;0.80;;
42420;SDS011;28063;48.140;11.588;2023-05-07T03:26:28;0.80;;;0.80;;
42420;SDS011;28063;48.140;11.588;2023-05-07T03:28:54;1.00;;;1.00;;
42420;SDS011;28063;48.140;11.588;2023-05-07T03:31:20;0.60;;;0.60;;
42420;SDS011;28063;48.140;11.588;2023-05-07T03:33:53;0.80;;;0.80;;
42420;SDS011;28063;48.140;11.588;2023-05-07T03:36:20;0.70;;;0.70;;
42420;SDS011;28063;48.140;11.588;2023-05-07T03:38:47;0.80;;;0.80;;
42420;SDS011;28063;48.140;11.588;2023-05-07T03:41:13;0.60;;;0.60;;
42420;SDS011;28063;48.140;11.588;2023-05-07T03:43:42;0.55;;;0.55;;
42420;SDS011;28063;48.140;11.588;2023-05-07T03:46:08;0.60;;;0.60;;
42420;SDS011;28063;48.140;11.588;2023-05-07T03:48:34;1.00;;;1.00;;
42420;SDS011;28063;48.140;11.588;2023-05-07T03:51:00;0.88;;;0.88;;
42420;SDS011;28063;48.140;11.588;2023-05-07T03:53:26;0.77;;;0.77;;
42420;SDS011;28063;48.140;11.588;2023-05-07T03:55:51;0.50;;;0.50;;
42420;SDS011;28063;48.140;11.588;2023-05-07T03:58:20;0.65;;;0.65;;
42420;SDS011;28063;48.140;11.588;2023-05-07T04:00:45;0.63;;;0.63;;
42420;SDS011;28063;48.140;11.588;2023-05-07T04:03:11;0.60;;;0.60;;
42420;SDS011;28063;48.140;11.588;2023-05-07T04:05:37;0.80;;;0.73;;
42420;SDS011;28063;48.140;11.588;2023-05-07T04:08:07;0.47;;;0.47;;
42420;SDS011;28063;48.140;11.588;2023-05-07T04:10:32;0.80;;;0.80;;
42420;SDS011;28063;48.140;11.588;2023-05-07T04:13:01;0.70;;;0.70;;
42420;SDS011;28063;48.140;11.588;2023-05-07T04:15:29;0.90;;;0.90;;
42420;SDS011;28063;48.140;11.588;2023-05-07T04:17:55;0.80;;;0.80;;
42420;SDS011;28063;48.140;11.588;2023-05-07T04:20:21;0.98;;;0.98;;
42420;SDS011;28063;48.140;11.588;2023-05-07T04:22:46;1.13;;;1.10;;
42420;SDS011;28063;48.140;11.588;2023-05-07T04:25:12;0.88;;;0.82;;
42420;SDS011;28063;48.140;11.588;2023-05-07T04:27:37;0.80;;;0.80;;
42420;SDS011;28063;48.140;11.588;2023-05-07T04:30:03;0.77;;;0.77;;
42420;SDS011;28063;48.140;11.588;2023-05-07T04:32:30;0.52;;;0.52;;
42420;SDS011;28063;48.140;11.588;2023-05-07T04:34:56;0.73;;;0.73;;
42420;SDS011;28063;48.140;11.588;2023-05-07T04:37:21;0.80;;;0.80;;
42420;SDS011;28063;48.140;11.588;2023-05-07T04:39:47;0.73;;;0.73;;
42420;SDS011;28063;48.140;11.588;2023-05-07T04:42:16;0.90;;;0.90;;
42420;SDS011;28063;48.140;11.588;2023-05-07T04:44:45;0.70;;;0.70;;
42420;SDS011;28063;48.140;11.588;2023-05-07T04:47:11;0.60;;;0.60;;
42420;SDS011;28063;48.140;11.588;2023-05-07T04:49:40;0.80;;;0.80;;
42420;SDS011;28063;48.140;11.588;2023-05-07T04:52:05;1.00;;;1.00;;
42420;SDS011;28063;48.140;11.588;2023-05-07T04:54:31;0.60;;;0.60;;
42420;SDS011;28063;48.140;11.588;2023-05-07T04:56:57;0.68;;;0.68;;
42420;SDS011;28063;48.140;11.588;2023-05-07T04:59:23;0.70;;;0.70;;
42420;SDS011;28063;48.140;11.588;2023-05-07T05:01:48;0.70;;;0.70;;
42420;SDS011;28063;48.140;11.588;2023-05-07T05:04:14;0.40;;;0.40;;
42420;SDS011;28063;48.140;11.588;2023-05-07T05:06:39;0.80;;;0.80;;
42420;SDS011;28063;48.140;11.588;2023-05-07T05:09:05;0.85;;;0.85;;
42420;SDS011;28063;48.140;11.588;2023-05-07T05:11:31;0.57;;;0.57;;
42420;SDS011;28063;48.140;11.588;2023-05-07T05:13:59;0.80;;;0.80;;
42420;SDS011;28063;48.140;11.588;2023-05-07T05:16:25;0.80;;;0.80;;
42420;SDS011;28063;48.140;11.588;2023-05-07T05:18:51;0.70;;;0.70;;
42420;SDS011;28063;48.140;11.588;2023-05-07T05:21:17;0.73;;;0.73;;
42420;SDS011;28063;48.140;11.588;2023-05-07T05:23:43;0.60;;;0.60;;
42420;SDS011;28063;48.140;11.588;2023-05-07T05:26:08;0.57;;;0.57;;
42420;SDS011;28063;48.140;11.588;2023-05-07T05:28:34;0.57;;;0.57;;
42420;SDS011;28063;48.140;11.588;2023-05-07T05:31:00;0.70;;;0.70;;
42420;SDS011;28063;48.140;11.588;2023-05-07T05:33:25;0.80;;;0.80;;
42420;SDS011;28063;48.140;11.588;2023-05-07T05:35:51;0.40;;;0.40;;
42420;SDS011;28063;48.140;11.588;2023-05-07T05:38:18;0.55;;;0.55;;
42420;SDS011;28063;48.140;11.588;2023-05-07T05:40:45;0.40;;;0.40;;
42420;SDS011;28063;48.140;11.588;2023-05-07T05:43:11;0.70;;;0.70;;
42420;SDS011;28063;48.140;11.588;2023-05-07T05:45:37;0.50;;;0.50;;
42420;SDS011;28063;48.140;11.588;2023-05-07T05:48:03;0.50;;;0.50;;
42420;SDS011;28063;48.140;11.588;2023-05-07T05:50:28;0.80;;;0.80;;
42420;SDS011;28063;48.140;11.588;2023-05-07T05:52:54;0.50;;;0.50;;
42420;SDS011;28063;48.140;11.588;2023-05-07T05:55:20;0.77;;;0.70;;
42420;SDS011;28063;48.140;11.588;2023-05-07T05:57:46;1.20;;;1.10;;
42420;SDS011;28063;48.140;11.588;2023-05-07T06:00:13;2.30;;;1.45;;
42420;SDS011;28063;48.140;11.588;2023-05-07T06:02:38;1.10;;;1.00;;
42420;SDS011;28063;48.140;11.588;2023-05-07T06:05:05;1.20;;;1.20;;
42420;SDS011;28063;48.140;11.588;2023-05-07T06:07:30;0.88;;;0.88;;
42420;SDS011;28063;48.140;11.588;2023-05-07T06:09:56;0.68;;;0.60;;
42420;SDS011;28063;48.140;11.588;2023-05-07T06:12:22;0.77;;;0.77;;
42420;SDS011;28063;48.140;11.588;2023-05-07T06:14:48;0.43;;;0.43;;
42420;SDS011;28063;48.140;11.588;2023-05-07T06:17:13;0.30;;;0.30;;
42420;SDS011;28063;48.140;11.588;2023-05-07T06:19:39;0.63;;;0.63;;
42420;SDS011;28063;48.140;11.588;2023-05-07T06:22:04;0.50;;;0.50;;
42420;SDS011;28063;48.140;11.588;2023-05-07T06:24:30;0.50;;;0.50;;
42420;SDS011;28063;48.140;11.588;2023-05-07T06:27:01;0.77;;;0.77;;
42420;SDS011;28063;48.140;11.588;2023-05-07T06:29:30;0.75;;;0.75;;
42420;SDS011;28063;48.140;11.588;2023-05-07T06:32:05;0.68;;;0.68;;
42420;SDS011;28063;48.140;11.588;2023-05-07T06:34:35;0.70;;;0.70;;
42420;SDS011;28063;48.140;11.588;2023-05-07T06:37:05;0.60;;;0.60;;
42420;SDS011;28063;48.140;11.588;2023-05-07T06:39:31;0.50;;;0.50;;
42420;SDS011;28063;48.140;11.588;2023-05-07T06:41:57;0.60;;;0.60;;
42420;SDS011;28063;48.140;11.588;2023-05-07T06:44:23;0.70;;;0.70;;
42420;SDS011;28063;48.140;11.588;2023-05-07T06:46:49;0.52;;;0.52;;
42420;SDS011;28063;48.140;11.588;2023-05-07T06:49:15;0.60;;;0.60;;
42420;SDS011;28063;48.140;11.588;2023-05-07T06:51:40;0.40;;;0.40;;
42420;SDS011;28063;48.140;11.588;2023-05-07T06:54:09;0.80;;;0.80;;
42420;SDS011;28063;48.140;11.588;2023-05-07T06:56:35;0.70;;;0.70;;
42420;SDS011;28063;48.140;11.588;2023-05-07T06:59:01;0.55;;;0.55;;
42420;SDS011;28063;48.140;11.588;2023-05-07T07:01:27;0.80;;;0.80;;
42420;SDS011;28063;48.140;11.588;2023-05-07T07:03:53;0.98;;;0.98;;
42420;SDS011;28063;48.140;11.588;2023-05-07T07:06:19;0.93;;;0.93;;
42420;SDS011;28063;48.140;11.588;2023-05-07T07:08:45;0.85;;;0.85;;
42420;SDS011;28063;48.140;11.588;2023-05-07T07:11:14;0.77;;;0.77;;
42420;SDS011;28063;48.140;11.588;2023-05-07T07:13:40;1.13;;;1.10;;
42420;SDS011;28063;48.140;11.588;2023-05-07T07:16:07;0.98;;;0.90;;
42420;SDS011;28063;48.140;11.588;2023-05-07T07:18:33;1.13;;;1.00;;
42420;SDS011;28063;48.140;11.588;2023-05-07T07:20:59;1.13;;;1.10;;
42420;SDS011;28063;48.140;11.588;2023-05-07T07:23:25;1.88;;;1.45;;
42420;SDS011;28063;48.140;11.588;2023-05-07T07:25:50;1.58;;;1.48;;
42420;SDS011;28063;48.140;11.588;2023-05-07T07:28:17;1.83;;;1.30;;
42420;SDS011;28063;48.140;11.588;2023-05-07T07:30:42;1.50;;;1.20;;
42420;SDS011;28063;48.140;11.588;2023-05-07T07:33:09;1.13;;;1.02;;
42420;SDS011;28063;48.140;11.588;2023-05-07T07:35:34;2.03;;;1.50;;
42420;SDS011;28063;48.140;11.588;2023-05-07T07:38:00;1.30;;;1.20;;
42420;SDS011;28063;48.140;11.588;2023-05-07T07:40:28;1.20;;;1.10;;
42420;SDS011;28063;48.140;11.588;2023-05-07T07:42:56;2.42;;;1.45;;
42420;SDS011;28063;48.140;11.588;2023-05-07T07:45:22;2.95;;;1.60;;
42420;SDS011;28063;48.140;11.588;2023-05-07T07:47:48;1.13;;;1.13;;
42420;SDS011;28063;48.140;11.588;2023-05-07T07:50:16;1.58;;;1.38;;
42420;SDS011;28063;48.140;11.588;2023-05-07T07:52:41;2.15;;;1.27;;
42420;SDS011;28063;48.140;11.588;2023-05-07T07:55:07;1.55;;;1.45;;
42420;SDS011;28063;48.140;11.588;2023-05-07T07:57:37;1.83;;;1.50;;
42420;SDS011;28063;48.140;11.588;2023-05-07T08:00:10;3.53;;;2.47;;
42420;SDS011;28063;48.140;11.588;2023-05-07T08:02:36;1.77;;;1.42;;
42420;SDS011;28063;48.140;11.588;2023-05-07T08:05:02;3.25;;;1.75;;
42420;SDS011;28063;48.140;11.588;2023-05-07T08:07:30;1.63;;;1.52;;
42420;SDS011;28063;48.140;11.588;2023-05-07T08:09:56;2.13;;;1.98;;
42420;SDS011;28063;48.140;11.588;2023-05-07T08:12:21;2.13;;;1.90;;
42420;SDS011;28063;48.140;11.588;2023-05-07T08:14:47;1.77;;;1.58;;
42420;SDS011;28063;48.140;11.588;2023-05-07T08:17:13;2.58;;;1.83;;
42420;SDS011;28063;48.140;11.588;2023-05-07T08:19:40;2.55;;;2.00;;
42420;SDS011;28063;48.140;11.588;2023-05-07T08:48:30;2.08;;;1.83;;
42420;SDS011;28063;48.140;11.588;2023-05-07T08:51:24;1.40;;;1.30;;
42420;SDS011;28063;48.140;11.588;2023-05-07T08:53:50;2.28;;;1.45;;
42420;SDS011;28063;48.140;11.588;2023-05-07T08:56:26;1.30;;;1.20;;
42420;SDS011;28063;48.140;11.588;2023-05-07T08:59:01;1.40;;;1.30;;
42420;SDS011;28063;48.140;11.588;2023-05-07T09:01:29;1.25;;;1.25;;
42420;SDS011;28063;48.140;11.588;2023-05-07T09:04:13;1.58;;;1.30;;
42420;SDS011;28063;48.140;11.588;2023-05-07T09:06:45;1.50;;;1.40;;
42420;SDS011;28063;48.140;11.588;2023-05-07T09:09:28;3.00;;;1.40;;
42420;SDS011;28063;48.140;11.588;2023-05-07T09:12:06;1.42;;;1.33;;
42420;SDS011;28063;48.140;11.588;2023-05-07T09:17:47;3.47;;;1.50;;
42420;SDS011;28063;48.140;11.588;2023-05-07T09:20:32;1.33;;;1.23;;
42420;SDS011;28063;48.140;11.588;2023-05-07T09:23:05;1.40;;;1.30;;
42420;SDS011;28063;48.140;11.588;2023-05-07T09:26:02;1.17;;;1.08;;
42420;SDS011;28063;48.140;11.588;2023-05-07T09:28:37;1.45;;;1.30;;
42420;SDS011;28063;48.140;11.588;2023-05-07T09:31:07;1.15;;;1.15;;
42420;SDS011;28063;48.140;11.588;2023-05-07T09:34:02;1.38;;;1.20;;
42420;SDS011;28063;48.140;11.588;2023-05-07T09:37:15;1.65;;;1.33;;
42420;SDS011;28063;48.140;11.588;2023-05-07T09:40:52;1.00;;;1.00;;
42420;SDS011;28063;48.140;11.588;2023-05-07T09:53:59;3.05;;;1.45;;
42420;SDS011;28063;48.140;11.588;2023-05-07T09:56:31;2.60;;;1.27;;
42420;SDS011;28063;48.140;11.588;2023-05-07T09:59:28;1.33;;;1.10;;
42420;SDS011;28063;48.140;11.588;2023-05-07T10:12:26;1.38;;;1.27;;
42420;SDS011;28063;48.140;11.588;2023-05-07T10:18:59;1.27;;;1.17;;
42420;SDS011;28063;48.140;11.588;2023-05-07T10:21:44;1.88;;;1.50;;
42420;SDS011;28063;48.140;11.588;2023-05-07T10:24:46;4.43;;;1.63;;
42420;SDS011;28063;48.140;11.588;2023-05-07T10:27:24;2.10;;;1.20;;
42420;SDS011;28063;48.140;11.588;2023-05-07T10:29:55;1.50;;;1.20;;
42420;SDS011;28063;48.140;11.588;2023-05-07T10:32:39;0.98;;;0.98;;
42420;SDS011;28063;48.140;11.588;2023-05-07T10:35:20;2.53;;;1.20;;
42420;SDS011;28063;48.140;11.588;2023-05-07T10:37:49;2.50;;;1.50;;
42420;SDS011;28063;48.140;11.588;2023-05-07T10:40:16;1.45;;;1.10;;
42420;SDS011;28063;48.140;11.588;2023-05-07T10:43:01;1.95;;;1.20;;
42420;SDS011;28063;48.140;11.588;2023-05-07T10:45:31;1.75;;;1.17;;
42420;SDS011;28063;48.140;11.588;2023-05-07T10:48:07;2.20;;;1.92;;
42420;SDS011;28063;48.140;11.588;2023-05-07T10:50:35;1.58;;;1.42;;
42420;SDS011;28063;48.140;11.588;2023-05-07T10:56:24;2.03;;;1.27;;
42420;SDS011;28063;48.140;11.588;2023-05-07T10:58:43;1.85;;;1.48;;
42420;SDS011;28063;48.140;11.588;2023-05-07T11:01:09;2.00;;;1.50;;
42420;SDS011;28063;48.140;11.588;2023-05-07T11:04:12;3.35;;;1.67;;
42420;SDS011;28063;48.140;11.588;2023-05-07T11:06:37;1.60;;;1.30;;
42420;SDS011;28063;48.140;11.588;2023-05-07T11:09:03;1.17;;;1.15;;
42420;SDS011;28063;48.140;11.588;2023-05-07T11:11:48;1.42;;;1.10;;
42420;SDS011;28063;48.140;11.588;2023-05-07T11:17:08;3.13;;;1.67;;
42420;SDS011;28063;48.140;11.588;2023-05-07T11:19:54;2.60;;;1.67;;
42420;SDS011;28063;48.140;11.588;2023-05-07T11:25:01;2.55;;;1.63;;
42420;SDS011;28063;48.140;11.588;2023-05-07T11:30:37;2.22;;;1.58;;
42420;SDS011;28063;48.140;11.588;2023-05-07T11:33:04;1.48;;;1.38;;
42420;SDS011;28063;48.140;11.588;2023-05-07T11:35:30;1.80;;;1.60;;
42420;SDS011;28063;48.140;11.588;2023-05-07T11:37:59;2.17;;;1.98;;
42420;SDS011;28063;48.140;11.588;2023-05-07T11:40:25;1.90;;;1.60;;
42420;SDS011;28063;48.140;11.588;2023-05-07T11:42:51;2.53;;;1.63;;
42420;SDS011;28063;48.140;11.588;2023-05-07T11:45:22;1.45;;;1.35;;
42420;SDS011;28063;48.140;11.588;2023-05-07T11:47:51;1.63;;;1.50;;
42420;SDS011;28063;48.140;11.588;2023-05-07T11:50:17;2.08;;;1.77;;
42420;SDS011;28063;48.140;11.588;2023-05-07T11:52:49;2.47;;;1.83;;
42420;SDS011;28063;48.140;11.588;2023-05-07T11:55:17;1.52;;;1.48;;
42420;SDS011;28063;48.140;11.588;2023-05-07T11:57:44;1.90;;;1.55;;
42420;SDS011;28063;48.140;11.588;2023-05-07T12:00:10;1.15;;;1.10;;
42420;SDS011;28063;48.140;11.588;2023-05-07T12:02:36;1.42;;;1.33;;
42420;SDS011;28063;48.140;11.588;2023-05-07T12:05:02;1.48;;;1.38;;
42420;SDS011;28063;48.140;11.588;2023-05-07T12:07:27;0.98;;;0.98;;
42420;SDS011;28063;48.140;11.588;2023-05-07T12:09:53;4.07;;;2.10;;
42420;SDS011;28063;48.140;11.588;2023-05-07T12:12:19;2.15;;;2.03;;
42420;SDS011;28063;48.140;11.588;2023-05-07T12:14:45;1.85;;;1.75;;
42420;SDS011;28063;48.140;11.588;2023-05-07T12:17:12;2.20;;;2.00;;
42420;SDS011;28063;48.140;11.588;2023-05-07T12:19:39;1.88;;;1.63;;
42420;SDS011;28063;48.140;11.588;2023-05-07T12:22:07;2.72;;;1.48;;
42420;SDS011;28063;48.140;11.588;2023-05-07T12:24:46;4.35;;;1.70;;
42420;SDS011;28063;48.140;11.588;2023-05-07T12:27:12;2.58;;;1.50;;
42420;SDS011;28063;48.140;11.588;2023-05-07T12:29:48;3.45;;;1.45;;
42420;SDS011;28063;48.140;11.588;2023-05-07T12:32:16;1.52;;;1.42;;
42420;SDS011;28063;48.140;11.588;2023-05-07T12:34:43;1.35;;;1.30;;
42420;SDS011;28063;48.140;11.588;2023-05-07T12:37:09;1.30;;;1.20;;
42420;SDS011;28063;48.140;11.588;2023-05-07T12:39:35;3.28;;;1.60;;
42420;SDS011;28063;48.140;11.588;2023-05-07T12:42:01;1.67;;;1.58;;
42420;SDS011;28063;48.140;11.588;2023-05-07T12:44:31;1.45;;;1.35;;
42420;SDS011;28063;48.140;11.588;2023-05-07T12:46:58;3.72;;;1.48;;
42420;SDS011;28063;48.140;11.588;2023-05-07T12:49:26;4.28;;;1.40;;
42420;SDS011;28063;48.140;11.588;2023-05-07T12:51:53;4.18;;;1.70;;
42420;SDS011;28063;48.140;11.588;2023-05-07T12:54:28;2.42;;;1.48;;
42420;SDS011;28063;48.140;11.588;2023-05-07T12:57:04;4.55;;;1.30;;
42420;SDS011;28063;48.140;11.588;2023-05-07T12:59:35;1.23;;;1.17;;
42420;SDS011;28063;48.140;11.588;2023-05-07T13:02:03;1.65;;;1.40;;
42420;SDS011;28063;48.140;11.588;2023-05-07T13:04:35;1.40;;;1.20;;
42420;SDS011;28063;48.140;11.588;2023-05-07T13:07:01;1.08;;;1.08;;
42420;SDS011;28063;48.140;11.588;2023-05-07T13:09:27;2.22;;;1.52;;
42420;SDS011;28063;48.140;11.588;2023-05-07T13:11:55;1.02;;;1.02;;
42420;SDS011;28063;48.140;11.588;2023-05-07T13:14:21;2.90;;;1.02;;
42420;SDS011;28063;48.140;11.588;2023-05-07T13:16:47;1.38;;;1.08;;
42420;SDS011;28063;48.140;11.588;2023-05-07T13:19:25;1.67;;;1.20;;
42420;SDS011;28063;48.140;11.588;2023-05-07T13:21:54;0.93;;;0.93;;
42420;SDS011;28063;48.140;11.588;2023-05-07T13:24:20;1.02;;;1.00;;
42420;SDS011;28063;48.140;11.588;2023-05-07T13:26:46;1.20;;;0.82;;
42420;SDS011;28063;48.140;11.588;2023-05-07T13:29:15;3.20;;;1.42;;
42420;SDS011;28063;48.140;11.588;2023-05-07T13:31:41;0.90;;;0.90;;
42420;SDS011;28063;48.140;11.588;2023-05-07T13:34:09;2.30;;;1.08;;
42420;SDS011;28063;48.140;11.588;2023-05-07T13:36:35;1.70;;;0.95;;
42420;SDS011;28063;48.140;11.588;2023-05-07T13:39:03;1.10;;;1.05;;
42420;SDS011;28063;48.140;11.588;2023-05-07T13:41:28;1.10;;;0.90;;
42420;SDS011;28063;48.140;11.588;2023-05-07T13:43:55;5.63;;;1.30;;
42420;SDS011;28063;48.140;11.588;2023-05-07T13:46:21;1.55;;;1.42;;
42420;SDS011;28063;48.140;11.588;2023-05-07T13:48:47;0.93;;;0.93;;
42420;SDS011;28063;48.140;11.588;2023-05-07T13:51:12;1.98;;;1.63;;
42420;SDS011;28063;48.140;11.588;2023-05-07T13:53:38;1.48;;;1.38;;
42420;SDS011;28063;48.140;11.588;2023-05-07T13:56:04;2.53;;;1.27;;
42420;SDS011;28063;48.140;11.588;2023-05-07T13:58:30;1.10;;;0.98;;
42420;SDS011;28063;48.140;11.588;2023-05-07T14:00:56;1.00;;;1.00;;
42420;SDS011;28063;48.140;11.588;2023-05-07T14:03:21;1.13;;;0.95;;
42420;SDS011;28063;48.140;11.588;2023-05-07T14:05:47;1.20;;;1.10;;
42420;SDS011;28063;48.140;11.588;2023-05-07T14:08:13;1.20;;;1.10;;
42420;SDS011;28063;48.140;11.588;2023-05-07T14:10:39;1.20;;;1.20;;
42420;SDS011;28063;48.140;11.588;2023-05-07T14:13:05;1.48;;;1.00;;
42420;SDS011;28063;48.140;11.588;2023-05-07T14:15:31;1.48;;;1.23;;
42420;SDS011;28063;48.140;11.588;2023-05-07T14:17:57;1.30;;;1.20;;
42420;SDS011;28063;48.140;11.588;2023-05-07T14:20:24;1.15;;;1.02;;
42420;SDS011;28063;48.140;11.588;2023-05-07T14:22:50;2.75;;;1.70;;
42420;SDS011;28063;48.140;11.588;2023-05-07T14:25:15;2.50;;;1.55;;
42420;SDS011;28063;48.140;11.588;2023-05-07T14:27:41;1.98;;;1.33;;
42420;SDS011;28063;48.140;11.588;2023-05-07T14:30:07;2.92;;;1.60;;
42420;SDS011;28063;48.140;11.588;2023-05-07T14:32:33;1.30;;;1.20;;
42420;SDS011;28063;48.140;11.588;2023-05-07T14:34:59;2.30;;;1.38;;
42420;SDS011;28063;48.140;11.588;2023-05-07T14:37:25;1.35;;;1.20;;
42420;SDS011;28063;48.140;11.588;2023-05-07T14:39:50;1.50;;;1.30;;
42420;SDS011;28063;48.140;11.588;2023-05-07T14:42:16;1.90;;;1.33;;
42420;SDS011;28063;48.140;11.588;2023-05-07T14:44:42;1.50;;;1.33;;
42420;SDS011;28063;48.140;11.588;2023-05-07T14:47:09;2.15;;;1.58;;
42420;SDS011;28063;48.140;11.588;2023-05-07T14:49:35;1.00;;;1.00;;
42420;SDS011;28063;48.140;11.588;2023-05-07T14:52:01;4.57;;;1.42;;
42420;SDS011;28063;48.140;11.588;2023-05-07T14:54:27;1.30;;;1.20;;
42420;SDS011;28063;48.140;11.588;2023-05-07T14:56:52;1.30;;;1.30;;
42420;SDS011;28063;48.140;11.588;2023-05-07T14:59:19;1.50;;;1.40;;
42420;SDS011;28063;48.140;11.588;2023-05-07T15:01:46;1.48;;;1.38;;
42420;SDS011;28063;48.140;11.588;2023-05-07T15:04:12;1.42;;;1.30;;
42420;SDS011;28063;48.140;11.588;2023-05-07T15:06:38;2.80;;;1.60;;
42420;SDS011;28063;48.140;11.588;2023-05-07T15:09:04;2.47;;;1.83;;
42420;SDS011;28063;48.140;11.588;2023-05-07T15:11:30;3.67;;;1.67;;
42420;SDS011;28063;48.140;11.588;2023-05-07T15:13:55;1.42;;;1.20;;
42420;SDS011;28063;48.140;11.588;2023-05-07T15:16:21;1.42;;;1.33;;
42420;SDS011;28063;48.140;11.588;2023-05-07T15:18:48;2.25;;;1.52;;
42420;SDS011;28063;48.140;11.588;2023-05-07T15:21:14;1.20;;;1.20;;
42420;SDS011;28063;48.140;11.588;2023-05-07T15:23:39;1.48;;;1.38;;
42420;SDS011;28063;48.140;11.588;2023-05-07T15:26:06;1.88;;;1.40;;
42420;SDS011;28063;48.140;11.588;2023-05-07T15:28:33;1.90;;;1.77;;
42420;SDS011;28063;48.140;11.588;2023-05-07T15:30:59;1.70;;;1.33;;
42420;SDS011;28063;48.140;11.588;2023-05-07T15:33:24;1.40;;;1.30;;
42420;SDS011;28063;48.140;11.588;2023-05-07T15:35:50;1.85;;;1.52;;
42420;SDS011;28063;48.140;11.588;2023-05-07T15:38:15;1.02;;;1.00;;
42420;SDS011;28063;48.140;11.588;2023-05-07T15:40:41;1.90;;;1.40;;
42420;SDS011;28063;48.140;11.588;2023-05-07T15:43:07;2.83;;;1.38;;
42420;SDS011;28063;48.140;11.588;2023-05-07T15:45:40;1.55;;;1.25;;